createdAt,value
2018-12-17T00:00:19.574Z,3.33
2018-12-17T00:02:48.943Z,3.77
2018-12-17T00:05:18.699Z,3.20
2018-12-17T00:07:47.954Z,2.23
2018-12-17T00:10:17.157Z,4.97
2018-12-17T00:12:46.407Z,3.17
2018-12-17T00:15:16.174Z,4.93
2018-12-17T00:17:45.399Z,3.47
2018-12-17T00:20:14.677Z,3.63
2018-12-17T00:22:43.929Z,4.20
2018-12-17T00:25:13.735Z,3.70
2018-12-17T00:27:43.079Z,3.37
2018-12-17T00:30:12.296Z,3.67
2018-12-17T00:32:41.539Z,2.73
2018-12-17T00:35:10.726Z,3.50
2018-12-17T00:37:39.962Z,3.63
2018-12-17T00:40:10.817Z,5.43
2018-12-17T00:42:40.273Z,5.17
2018-12-17T00:45:09.636Z,3.90
2018-12-17T00:47:39.933Z,3.37
2018-12-17T00:50:09.231Z,2.13
2018-12-17T00:52:38.497Z,3.23
2018-12-17T00:55:07.964Z,2.30
2018-12-17T00:57:38.069Z,3.27
2018-12-17T01:00:09.798Z,2.67
2018-12-17T01:02:39.064Z,3.27
2018-12-17T01:05:09.819Z,5.67
2018-12-17T01:07:39.167Z,3.93
2018-12-17T01:10:09.637Z,6.00
2018-12-17T01:12:38.847Z,2.50
2018-12-17T01:15:08.754Z,3.43
2018-12-17T01:17:38.051Z,3.07
2018-12-17T01:20:07.808Z,3.57
2018-12-17T01:22:37.157Z,3.30
2018-12-17T01:25:06.713Z,2.73
2018-12-17T01:27:37.071Z,2.77
2018-12-17T01:30:08.142Z,4.40
2018-12-17T01:32:39.065Z,4.03
2018-12-17T01:35:09.195Z,3.87
2018-12-17T01:37:38.536Z,3.33
2018-12-17T01:40:08.021Z,3.53
2018-12-17T01:42:37.257Z,4.20
2018-12-17T01:45:07.869Z,6.13
2018-12-17T01:47:37.172Z,4.47
2018-12-17T01:50:06.596Z,4.80
2018-12-17T01:52:37.418Z,3.80
2018-12-17T01:55:06.757Z,4.23
2018-12-17T01:57:36.705Z,3.80
2018-12-17T02:00:06.403Z,5.03
2018-12-17T02:02:35.679Z,4.37
2018-12-17T02:05:05.166Z,6.60
2018-12-17T02:07:34.940Z,4.03
2018-12-17T02:10:04.519Z,3.63
2018-12-17T02:12:33.760Z,5.07
2018-12-17T02:15:03.013Z,3.47
2018-12-17T02:17:32.297Z,3.30
2018-12-17T02:20:01.616Z,3.63
2018-12-17T02:22:30.861Z,5.73
2018-12-17T02:25:00.089Z,5.80
2018-12-17T02:27:29.356Z,8.47
2018-12-17T02:29:58.517Z,6.57
2018-12-17T02:32:28.698Z,3.90
2018-12-17T02:34:59.169Z,4.47
2018-12-17T02:37:28.428Z,3.27
2018-12-17T02:39:58.100Z,5.17
2018-12-17T02:42:27.332Z,4.17
2018-12-17T02:44:56.527Z,4.50
2018-12-17T02:47:25.746Z,8.83
2018-12-17T02:49:55.012Z,6.83
2018-12-17T02:52:24.250Z,4.43
2018-12-17T02:54:53.526Z,4.57
2018-12-17T02:57:23.346Z,5.23
2018-12-17T02:59:52.580Z,7.23
2018-12-17T03:02:21.903Z,8.07
2018-12-17T03:04:51.158Z,5.77
2018-12-17T03:07:21.577Z,5.10
2018-12-17T03:09:50.774Z,4.43
2018-12-17T03:12:20.053Z,5.70
2018-12-17T03:14:49.381Z,4.73
2018-12-17T03:17:18.745Z,6.40
2018-12-17T03:19:48.065Z,6.13
2018-12-17T03:22:17.353Z,5.87
2018-12-17T03:24:46.637Z,4.87
2018-12-17T03:27:17.014Z,6.33
2018-12-17T03:29:48.309Z,5.70
2018-12-17T03:32:17.815Z,6.20
2018-12-17T03:34:49.490Z,8.07
2018-12-17T03:37:18.948Z,6.33
2018-12-17T03:39:48.435Z,7.10
2018-12-17T03:42:18.268Z,5.60
2018-12-17T03:44:48.592Z,7.80
2018-12-17T03:47:18.029Z,8.50
2018-12-17T03:49:47.536Z,11.50
2018-12-17T03:52:16.786Z,6.30
2018-12-17T03:54:46.141Z,6.30
2018-12-17T03:57:16.286Z,7.47
2018-12-17T03:59:45.543Z,6.03
2018-12-17T04:02:14.797Z,5.13
2018-12-17T04:04:44.513Z,6.67
2018-12-17T04:07:13.778Z,6.97
2018-12-17T04:09:43.124Z,5.83
2018-12-17T04:12:12.639Z,8.13
2018-12-17T04:14:41.876Z,5.47
2018-12-17T04:17:11.093Z,7.87
2018-12-17T04:19:40.317Z,13.30
2018-12-17T04:22:09.556Z,7.10
2018-12-17T04:24:38.836Z,7.33
2018-12-17T04:27:08.029Z,5.30
2018-12-17T04:29:37.330Z,5.97
2018-12-17T04:32:06.581Z,4.60
2018-12-17T04:34:35.842Z,5.80
2018-12-17T04:37:05.938Z,6.20
2018-12-17T04:39:35.263Z,7.87
2018-12-17T04:42:04.630Z,7.53
2018-12-17T04:44:34.423Z,6.93
2018-12-17T04:47:03.708Z,5.93
2018-12-17T04:49:32.929Z,6.50
2018-12-17T04:52:02.657Z,6.03
2018-12-17T04:54:32.199Z,8.47
2018-12-17T04:57:01.462Z,5.73
2018-12-17T04:59:31.868Z,6.43
2018-12-17T05:02:01.815Z,7.13
2018-12-17T05:04:31.031Z,5.00
2018-12-17T05:07:00.266Z,7.33
2018-12-17T05:09:29.518Z,6.90
2018-12-17T05:11:59.626Z,8.50
2018-12-17T05:14:28.873Z,8.33
2018-12-17T05:16:59.348Z,8.17
2018-12-17T05:19:28.695Z,6.53
2018-12-17T05:21:57.951Z,6.73
2018-12-17T05:24:27.156Z,7.00
2018-12-17T05:26:56.425Z,9.20
2018-12-17T05:29:25.630Z,6.53
2018-12-17T05:31:54.863Z,6.97
2018-12-17T05:34:24.160Z,8.47
2018-12-17T05:36:54.291Z,5.37
2018-12-17T05:39:23.699Z,5.93
2018-12-17T05:41:53.629Z,7.63
2018-12-17T05:44:22.820Z,6.40
2018-12-17T05:46:52.792Z,7.07
2018-12-17T05:49:22.272Z,7.80
2018-12-17T05:51:51.682Z,9.80
2018-12-17T05:54:20.943Z,8.77
2018-12-17T05:56:50.198Z,8.53
2018-12-17T05:59:19.525Z,13.83
2018-12-17T06:01:48.733Z,25.67
2018-12-17T06:04:18.067Z,26.53
2018-12-17T06:06:47.430Z,26.80
2018-12-17T06:09:16.888Z,18.63
2018-12-17T06:11:46.409Z,19.93
2018-12-17T06:14:15.689Z,18.27
2018-12-17T06:16:44.879Z,23.53
2018-12-17T06:19:14.665Z,17.07
2018-12-17T06:21:44.922Z,15.10
2018-12-17T06:24:14.115Z,25.43
2018-12-17T06:26:43.328Z,15.40
2018-12-17T06:29:12.614Z,20.17
2018-12-17T06:31:41.860Z,15.93
2018-12-17T06:34:11.083Z,27.60
2018-12-17T06:36:40.340Z,20.83
2018-12-17T06:39:09.556Z,13.50
2018-12-17T06:41:38.938Z,12.53
2018-12-17T06:44:08.130Z,16.23
2018-12-17T06:46:37.383Z,16.10
2018-12-17T06:49:06.626Z,15.37
2018-12-17T06:51:36.070Z,19.50
2018-12-17T06:54:05.677Z,11.87
2018-12-17T06:56:35.044Z,10.77
2018-12-17T06:59:05.015Z,16.50
2018-12-17T07:01:34.355Z,11.40
2018-12-17T07:04:04.438Z,13.40
2018-12-17T07:06:33.721Z,15.53
2018-12-17T07:09:03.741Z,12.53
2018-12-17T07:11:33.657Z,10.67
2018-12-17T07:14:02.878Z,11.77
2018-12-17T07:16:32.141Z,16.97
2018-12-17T07:19:01.643Z,16.80
2018-12-17T07:21:31.590Z,19.70
2018-12-17T07:24:00.943Z,14.57
2018-12-17T07:26:30.219Z,20.83
2018-12-17T07:29:02.042Z,22.90
2018-12-17T07:31:32.022Z,19.80
2018-12-17T07:34:01.770Z,26.13
2018-12-17T07:36:31.267Z,62.10
2018-12-17T07:39:01.334Z,33.40
2018-12-17T07:41:31.358Z,38.93
2018-12-17T07:44:02.136Z,45.60
2018-12-17T07:46:32.967Z,27.17
2018-12-17T07:49:02.211Z,51.77
2018-12-17T07:51:31.494Z,71.97
2018-12-17T07:54:01.609Z,86.23
2018-12-17T07:56:31.807Z,42.40
2018-12-17T07:59:01.292Z,21.53
2018-12-17T08:01:31.237Z,24.93
2018-12-17T08:04:01.191Z,19.07
2018-12-17T08:06:30.451Z,20.60
2018-12-17T08:08:59.728Z,15.97
2018-12-17T08:11:28.925Z,14.23
2018-12-17T08:13:59.068Z,14.13
2018-12-17T08:16:28.298Z,18.93
2018-12-17T08:18:57.542Z,16.27
2018-12-17T08:21:27.112Z,13.70
2018-12-17T08:23:58.307Z,15.50
2018-12-17T08:26:27.775Z,17.10
2018-12-17T08:28:57.789Z,15.63
2018-12-17T08:31:28.939Z,17.93
2018-12-17T08:33:59.754Z,17.83
2018-12-17T08:36:29.969Z,19.00
2018-12-17T08:39:00.497Z,15.87
2018-12-17T08:41:33.287Z,18.60
2018-12-17T08:44:03.610Z,14.00
2018-12-17T08:46:34.015Z,14.17
2018-12-17T08:49:04.875Z,13.70
2018-12-17T08:51:34.974Z,17.33
2018-12-17T08:54:05.607Z,14.27
2018-12-17T08:56:35.211Z,15.63
2018-12-17T08:59:05.905Z,13.50
2018-12-17T09:01:37.070Z,19.37
2018-12-17T09:04:06.877Z,13.63
2018-12-17T09:06:36.963Z,18.43
2018-12-17T09:09:08.140Z,18.77
2018-12-17T09:11:37.570Z,14.07
2018-12-17T09:14:06.793Z,16.77
2018-12-17T09:16:37.220Z,17.30
2018-12-17T09:19:06.595Z,17.90
2018-12-17T09:21:36.856Z,14.60
2018-12-17T09:24:08.260Z,17.43
2018-12-17T09:26:38.099Z,22.20
2018-12-17T09:29:07.358Z,22.40
2018-12-17T09:31:36.685Z,18.57
2018-12-17T09:34:06.090Z,21.73
2018-12-17T09:36:36.508Z,19.80
2018-12-17T09:39:08.982Z,17.37
2018-12-17T09:41:45.095Z,23.13
2018-12-17T09:44:15.176Z,17.77
2018-12-17T09:46:46.477Z,14.40
2018-12-17T09:49:15.739Z,24.50
2018-12-17T09:51:45.080Z,17.00
2018-12-17T09:54:14.330Z,19.37
2018-12-17T09:56:44.584Z,19.47
2018-12-17T09:59:13.825Z,20.97
2018-12-17T10:01:43.039Z,21.03
2018-12-17T10:04:12.340Z,17.07
2018-12-17T10:06:41.593Z,16.03
2018-12-17T10:09:12.074Z,15.37
2018-12-17T10:11:41.333Z,18.57
2018-12-17T10:14:10.587Z,16.70
2018-12-17T10:16:40.507Z,14.93
2018-12-17T10:19:10.445Z,15.43
2018-12-17T10:21:39.738Z,12.63
2018-12-17T10:24:09.270Z,11.93
2018-12-17T10:26:38.974Z,12.90
2018-12-17T10:29:08.237Z,8.30
2018-12-17T10:31:38.227Z,7.93
2018-12-17T10:34:08.585Z,10.40
2018-12-17T10:36:37.844Z,8.47
2018-12-17T10:39:07.942Z,6.53
2018-12-17T10:41:37.298Z,4.23
2018-12-17T10:44:07.060Z,5.53
2018-12-17T10:46:36.363Z,4.90
2018-12-17T10:49:06.723Z,3.87
2018-12-17T10:51:35.986Z,4.43
2018-12-17T10:54:06.459Z,3.43
2018-12-17T10:56:35.717Z,4.00
2018-12-17T10:59:04.946Z,3.93
2018-12-17T11:01:39.524Z,3.97
2018-12-17T11:04:15.025Z,5.20
2018-12-17T11:06:44.422Z,4.07
2018-12-17T11:09:20.007Z,6.57
2018-12-17T11:11:49.357Z,5.70
2018-12-17T11:14:18.626Z,5.00
2018-12-17T11:16:47.931Z,7.97
2018-12-17T11:19:18.259Z,3.60
2018-12-17T11:21:48.574Z,3.63
2018-12-17T11:24:17.884Z,5.07
2018-12-17T11:26:47.895Z,4.20
2018-12-17T11:29:18.680Z,4.23
2018-12-17T11:31:47.898Z,3.70
2018-12-17T11:34:17.141Z,4.77
2018-12-17T11:36:46.822Z,3.17
2018-12-17T11:39:16.406Z,3.57
2018-12-17T11:41:45.740Z,3.27
2018-12-17T11:44:15.011Z,2.23
2018-12-17T11:46:44.472Z,2.00
2018-12-17T11:49:14.785Z,4.47
2018-12-17T11:51:44.165Z,1.97
2018-12-17T11:54:14.345Z,4.20
2018-12-17T11:58:52.236Z,2.67
2018-12-17T12:01:27.970Z,3.33
2018-12-17T12:03:58.443Z,3.00
2018-12-17T12:06:27.795Z,2.43
2018-12-17T12:08:58.042Z,3.97
2018-12-17T12:11:27.563Z,2.43
2018-12-17T12:13:56.842Z,3.40
2018-12-17T12:16:26.068Z,2.73
2018-12-17T12:18:55.441Z,4.50
2018-12-17T12:21:25.447Z,6.23
2018-12-17T12:23:55.944Z,3.50
2018-12-17T12:26:25.975Z,3.63
2018-12-17T12:28:58.963Z,3.47
2018-12-17T12:31:28.686Z,4.63
2018-12-17T12:33:59.995Z,3.97
2018-12-17T12:36:30.112Z,4.47
2018-12-17T12:38:59.936Z,4.87
2018-12-17T12:41:29.244Z,4.57
2018-12-17T12:43:58.486Z,4.50
2018-12-17T12:46:28.529Z,4.60
2018-12-17T12:48:58.164Z,4.87
2018-12-17T12:51:32.581Z,7.87
2018-12-17T12:54:00.711Z,5.77
2018-12-17T12:56:29.995Z,6.43
2018-12-17T12:58:59.497Z,5.57
2018-12-17T13:01:28.845Z,4.37
2018-12-17T13:03:58.128Z,3.80
2018-12-17T13:06:28.947Z,4.07
2018-12-17T13:08:59.910Z,6.10
2018-12-17T13:11:42.441Z,5.40
2018-12-17T13:14:14.332Z,5.17
2018-12-17T13:16:43.655Z,6.50
2018-12-17T13:19:12.934Z,8.20
2018-12-17T13:21:42.278Z,7.97
2018-12-17T13:24:12.631Z,5.40
2018-12-17T13:26:42.296Z,4.33
2018-12-17T13:29:11.617Z,4.23
2018-12-17T13:31:40.971Z,8.63
2018-12-17T13:34:11.196Z,3.60
2018-12-17T13:36:40.668Z,4.03
2018-12-17T13:39:10.236Z,5.37
2018-12-17T13:41:39.524Z,4.57
2018-12-17T13:44:08.959Z,7.20
2018-12-17T13:46:38.808Z,5.23
2018-12-17T13:49:08.994Z,5.97
2018-12-17T13:51:42.666Z,4.07
2018-12-17T13:54:12.315Z,7.73
2018-12-17T13:56:42.757Z,7.73
2018-12-17T13:59:13.188Z,5.90
2018-12-17T14:01:42.512Z,8.40
2018-12-17T14:04:13.253Z,11.93
2018-12-17T14:06:42.560Z,10.77
2018-12-17T14:09:11.833Z,6.87
2018-12-17T14:11:41.103Z,11.10
2018-12-17T14:14:10.859Z,7.70
2018-12-17T14:16:45.604Z,4.47
2018-12-17T14:19:20.190Z,5.30
2018-12-17T14:21:54.824Z,5.80
2018-12-17T14:24:24.172Z,5.47
2018-12-17T14:26:53.566Z,8.93
2018-12-17T14:29:22.773Z,6.33
2018-12-17T14:31:52.243Z,7.20
2018-12-17T14:34:22.213Z,9.37
2018-12-17T14:36:52.227Z,9.73
2018-12-17T14:39:28.461Z,7.17
2018-12-17T14:41:57.743Z,8.53
2018-12-17T14:44:32.320Z,7.83
2018-12-17T14:47:02.239Z,8.43
2018-12-17T14:49:31.559Z,8.17
2018-12-17T14:52:00.797Z,5.67
2018-12-17T14:54:30.668Z,7.37
2018-12-17T14:57:00.076Z,12.73
2018-12-17T14:59:29.431Z,9.70
2018-12-17T15:02:01.623Z,18.70
2018-12-17T15:04:30.932Z,15.43
2018-12-17T15:07:00.246Z,19.33
2018-12-17T15:09:31.381Z,23.17
2018-12-17T15:12:01.431Z,21.77
2018-12-17T15:14:30.709Z,12.03
2018-12-17T15:17:04.958Z,16.73
2018-12-17T15:19:34.287Z,14.60
2018-12-17T15:22:04.181Z,10.63
2018-12-17T15:24:40.233Z,7.67
2018-12-17T15:27:09.218Z,7.83
2018-12-17T15:29:38.927Z,7.07
2018-12-17T15:32:09.544Z,13.13
2018-12-17T15:34:38.946Z,6.60
2018-12-17T15:37:08.341Z,6.50
2018-12-17T15:39:37.833Z,9.50
2018-12-17T15:42:07.099Z,9.97
2018-12-17T15:44:38.454Z,7.20
2018-12-17T15:47:07.811Z,6.83
2018-12-17T15:49:37.529Z,6.97
2018-12-17T15:52:07.941Z,7.70
2018-12-17T15:54:37.723Z,7.00
2018-12-17T15:57:12.402Z,10.50
2018-12-17T15:59:44.924Z,9.17
2018-12-17T16:02:14.275Z,8.93
2018-12-17T16:04:48.548Z,8.27
2018-12-17T16:07:18.019Z,13.00
2018-12-17T16:09:47.432Z,10.80
2018-12-17T16:12:16.787Z,13.63
2018-12-17T16:14:46.834Z,10.00
2018-12-17T16:17:16.176Z,11.67
2018-12-17T16:19:45.803Z,11.83
2018-12-17T16:22:15.170Z,10.00
2018-12-17T16:24:44.463Z,10.17
2018-12-17T16:27:19.387Z,11.80
2018-12-17T16:29:49.009Z,11.53
2018-12-17T16:32:19.122Z,10.83
2018-12-17T16:34:49.272Z,13.83
2018-12-17T16:37:18.628Z,13.60
2018-12-17T16:39:47.993Z,14.57
2018-12-17T16:42:17.229Z,12.07
2018-12-17T16:44:46.545Z,12.67
2018-12-17T16:47:16.431Z,14.50
2018-12-17T16:49:45.853Z,12.57
2018-12-17T16:52:15.117Z,11.73
2018-12-17T16:54:44.472Z,11.67
2018-12-17T16:57:14.050Z,14.57
2018-12-17T16:59:50.492Z,16.27
2018-12-17T17:02:19.909Z,13.90
2018-12-17T17:04:51.211Z,18.00
2018-12-17T17:07:20.874Z,17.10
2018-12-17T17:09:50.244Z,14.97
2018-12-17T17:12:19.528Z,17.27
2018-12-17T17:14:48.878Z,15.53
2018-12-17T17:17:18.141Z,24.00
2018-12-17T17:19:50.830Z,25.00
2018-12-17T17:22:18.655Z,18.07
2018-12-17T17:24:47.911Z,22.00
2018-12-17T17:27:19.496Z,18.03
2018-12-17T17:29:49.253Z,22.13
2018-12-17T17:32:18.513Z,22.20
2018-12-17T17:34:47.851Z,25.87
2018-12-17T17:37:17.275Z,23.93
2018-12-17T17:39:46.619Z,20.87
2018-12-17T17:42:16.888Z,25.63
2018-12-17T17:44:46.941Z,23.93
2018-12-17T17:47:16.208Z,22.40
2018-12-17T17:49:46.212Z,23.57
2018-12-17T17:52:15.449Z,114.73
2018-12-17T17:54:47.839Z,28.97
2018-12-17T17:57:17.866Z,37.70
2018-12-17T17:59:47.135Z,33.30
2018-12-17T18:02:18.978Z,52.07
2018-12-17T18:04:48.540Z,33.67
2018-12-17T18:07:17.819Z,25.63
2018-12-17T18:09:47.177Z,43.23
2018-12-17T18:12:16.540Z,44.83
2018-12-17T18:14:46.067Z,49.93
2018-12-17T18:17:15.415Z,28.10
2018-12-17T18:19:45.022Z,22.87
2018-12-17T18:22:14.309Z,19.30
2018-12-17T18:24:44.047Z,21.67
2018-12-17T18:27:16.126Z,18.13
2018-12-17T18:29:45.443Z,17.87
2018-12-17T18:32:15.008Z,15.77
2018-12-17T18:34:44.273Z,18.67
2018-12-17T18:37:13.507Z,19.40
2018-12-17T18:39:42.842Z,20.40
2018-12-17T18:42:12.973Z,27.83
2018-12-17T18:44:43.201Z,27.83
2018-12-17T18:47:12.473Z,23.53
2018-12-17T18:49:41.842Z,21.60
2018-12-17T18:52:11.233Z,23.63
2018-12-17T18:54:40.939Z,19.13
2018-12-17T18:57:10.156Z,17.27
2018-12-17T18:59:39.393Z,19.00
2018-12-17T19:02:08.620Z,20.40
2018-12-17T19:04:37.847Z,21.97
2018-12-17T19:07:07.085Z,20.77
2018-12-17T19:09:36.458Z,21.17
2018-12-17T19:12:05.940Z,27.33
2018-12-17T19:14:35.266Z,27.50
2018-12-17T19:17:04.973Z,38.43
2018-12-17T19:19:34.255Z,38.00
2018-12-17T19:22:03.786Z,27.67
2018-12-17T19:24:33.142Z,27.63
2018-12-17T19:27:02.664Z,23.07
2018-12-17T19:29:32.000Z,31.83
2018-12-17T19:32:02.178Z,24.70
2018-12-17T19:34:31.558Z,24.23
2018-12-17T19:37:00.825Z,23.53
2018-12-17T19:39:30.824Z,24.03
2018-12-17T19:42:03.370Z,29.33
2018-12-17T19:44:33.425Z,27.07
2018-12-17T19:47:04.018Z,23.17
2018-12-17T19:49:33.306Z,25.27
2018-12-17T19:52:03.280Z,19.43
2018-12-17T19:54:32.545Z,20.80
2018-12-17T19:57:02.362Z,22.83
2018-12-17T19:59:38.007Z,16.90
2018-12-17T20:02:07.270Z,19.70
2018-12-17T20:04:36.538Z,21.10
2018-12-17T20:07:05.838Z,19.20
2018-12-17T20:09:35.180Z,21.47
2018-12-17T20:12:04.526Z,21.60
2018-12-17T20:14:34.917Z,21.37
2018-12-17T20:17:04.281Z,21.87
2018-12-17T20:19:33.555Z,28.27
2018-12-17T20:22:03.068Z,19.17
2018-12-17T20:24:33.130Z,21.10
2018-12-17T20:27:02.447Z,20.10
2018-12-17T20:29:33.281Z,23.07
2018-12-17T20:32:04.206Z,21.37
2018-12-17T20:34:33.496Z,25.07
2018-12-17T20:37:02.813Z,24.03
2018-12-17T20:39:32.123Z,22.03
2018-12-17T20:44:46.406Z,26.87
2018-12-17T20:47:16.622Z,20.80
2018-12-17T20:49:45.943Z,21.20
2018-12-17T20:52:15.246Z,22.80
2018-12-17T20:54:44.735Z,22.87
2018-12-17T20:57:14.147Z,20.60
2018-12-17T20:59:43.451Z,27.33
2018-12-17T21:02:13.944Z,18.90
2018-12-17T21:04:45.594Z,22.90
2018-12-17T21:07:17.247Z,27.53
2018-12-17T21:09:46.894Z,26.33
2018-12-17T21:12:17.315Z,32.97
2018-12-17T21:14:49.280Z,28.33
2018-12-17T21:17:19.588Z,31.93
2018-12-17T21:19:49.667Z,26.40
2018-12-17T21:25:09.864Z,30.83
2018-12-17T21:27:39.470Z,28.83
2018-12-17T21:30:14.951Z,31.50
2018-12-17T21:32:44.418Z,27.70
2018-12-17T21:35:13.876Z,28.07
2018-12-17T21:37:48.294Z,22.93
2018-12-17T21:40:19.310Z,24.17
2018-12-17T21:42:49.947Z,25.57
2018-12-17T21:45:19.306Z,26.33
2018-12-17T21:47:49.462Z,30.33
2018-12-17T21:50:19.100Z,22.20
2018-12-17T21:52:50.285Z,24.30
2018-12-17T21:55:20.669Z,22.77
2018-12-17T21:57:49.938Z,24.50
2018-12-17T22:00:19.251Z,27.80
2018-12-17T22:02:49.024Z,33.47
2018-12-17T22:05:18.263Z,31.90
2018-12-17T22:07:48.482Z,24.57
2018-12-17T22:10:23.231Z,28.23
2018-12-17T22:12:54.162Z,29.87
2018-12-17T22:15:24.491Z,24.40
2018-12-17T22:17:56.027Z,24.93
2018-12-17T22:20:26.138Z,24.03
2018-12-17T22:22:57.723Z,25.03
2018-12-17T22:25:28.485Z,23.63
2018-12-17T22:27:57.840Z,26.17
2018-12-17T22:30:27.278Z,22.23
2018-12-17T22:32:56.620Z,19.10
2018-12-17T22:35:25.935Z,21.50
2018-12-17T22:37:55.523Z,22.00
2018-12-17T22:40:24.916Z,20.33
2018-12-17T22:42:54.900Z,23.67
2018-12-17T22:45:24.632Z,27.13
2018-12-17T22:47:55.738Z,21.37
2018-12-17T22:50:25.379Z,29.10
2018-12-17T22:52:54.657Z,26.93
2018-12-17T22:55:24.179Z,27.63
2018-12-17T22:57:54.322Z,23.00
2018-12-17T23:00:25.230Z,26.60
2018-12-17T23:02:54.477Z,23.67
2018-12-17T23:05:24.449Z,25.67
2018-12-17T23:07:53.887Z,22.47
2018-12-17T23:10:38.674Z,24.43
2018-12-17T23:13:19.215Z,32.77
2018-12-17T23:15:59.584Z,27.40
2018-12-17T23:18:27.803Z,26.47
2018-12-17T23:20:57.457Z,31.90
2018-12-17T23:23:27.831Z,26.40
2018-12-17T23:25:58.423Z,24.23
2018-12-17T23:28:27.951Z,28.47
2018-12-17T23:30:57.245Z,23.50
2018-12-17T23:33:32.673Z,29.30
2018-12-17T23:35:58.263Z,23.73
2018-12-17T23:38:27.526Z,25.10
2018-12-17T23:40:57.489Z,24.53
2018-12-17T23:43:27.652Z,27.50
2018-12-17T23:45:56.884Z,21.20
2018-12-17T23:48:26.230Z,24.83
2018-12-17T23:50:55.630Z,25.83
2018-12-17T23:53:26.096Z,22.23
2018-12-17T23:55:55.322Z,22.30
2018-12-17T23:58:24.562Z,24.27
